sensor_id;sensor_type;location;lat;lon;timestamp;temperature;humidity
48264;DHT22;34086;51.076;13.722;2022-12-24T00:00:28;9.30;99.90
48264;DHT22;34086;51.076;13.722;2022-12-24T00:01:29;9.30;99.90
48264;DHT22;34086;51.076;13.722;2022-12-24T00:02:29;9.20;99.90
48264;DHT22;34086;51.076;13.722;2022-12-24T00:03:30;9.20;99.90
48264;DHT22;34086;51.076;13.722;2022-12-24T00:04:30;9.20;99.90
48264;DHT22;34086;51.076;13.722;2022-12-24T00:05:31;9.20;99.90
48264;DHT22;34086;51.076;13.722;2022-12-24T00:06:31;9.20;99.90
48264;DHT22;34086;51.076;13.722;2022-12-24T00:07:32;9.20;99.90
48264;DHT22;34086;51.076;13.722;2022-12-24T00:08:33;9.20;99.90
48264;DHT22;34086;51.076;13.722;2022-12-24T00:09:33;9.20;99.90
48264;DHT22;34086;51.076;13.722;2022-12-24T00:10:34;9.20;99.90
48264;DHT22;34086;51.076;13.722;2022-12-24T00:11:34;9.20;99.90
48264;DHT22;34086;51.076;13.722;2022-12-24T00:12:35;9.20;99.90
48264;DHT22;34086;51.076;13.722;2022-12-24T00:13:36;9.20;99.90
48264;DHT22;34086;51.076;13.722;2022-12-24T00:14:37;9.20;99.90
48264;DHT22;34086;51.076;13.722;2022-12-24T00:15:37;9.20;99.90
48264;DHT22;34086;51.076;13.722;2022-12-24T00:16:38;9.10;99.90
48264;DHT22;34086;51.076;13.722;2022-12-24T00:17:38;9.10;99.90
48264;DHT22;34086;51.076;13.722;2022-12-24T00:18:39;9.20;99.90
48264;DHT22;34086;51.076;13.722;2022-12-24T00:19:39;9.10;99.90
48264;DHT22;34086;51.076;13.722;2022-12-24T00:20:49;9.10;99.90
48264;DHT22;34086;51.076;13.722;2022-12-24T00:21:49;9.10;99.90
48264;DHT22;34086;51.076;13.722;2022-12-24T00:22:50;9.10;99.90
48264;DHT22;34086;51.076;13.722;2022-12-24T00:23:51;9.10;99.90
48264;DHT22;34086;51.076;13.722;2022-12-24T00:24:51;9.10;99.90
48264;DHT22;34086;51.076;13.722;2022-12-24T00:25:52;9.10;99.90
48264;DHT22;34086;51.076;13.722;2022-12-24T00:26:52;9.10;99.90
48264;DHT22;34086;51.076;13.722;2022-12-24T00:27:53;9.10;99.90
48264;DHT22;34086;51.076;13.722;2022-12-24T00:28:54;9.10;99.90
48264;DHT22;34086;51.076;13.722;2022-12-24T00:29:54;9.00;99.90
48264;DHT22;34086;51.076;13.722;2022-12-24T00:30:55;9.10;99.90
48264;DHT22;34086;51.076;13.722;2022-12-24T00:31:56;9.10;99.90
48264;DHT22;34086;51.076;13.722;2022-12-24T00:32:56;9.00;99.90
48264;DHT22;34086;51.076;13.722;2022-12-24T00:33:57;9.10;99.90
48264;DHT22;34086;51.076;13.722;2022-12-24T00:34:57;9.10;99.90
48264;DHT22;34086;51.076;13.722;2022-12-24T00:36:01;9.10;99.90
48264;DHT22;34086;51.076;13.722;2022-12-24T00:37:02;9.10;99.90
48264;DHT22;34086;51.076;13.722;2022-12-24T00:38:03;9.10;99.90
48264;DHT22;34086;51.076;13.722;2022-12-24T00:39:04;9.10;99.90
48264;DHT22;34086;51.076;13.722;2022-12-24T00:40:05;9.10;99.90
48264;DHT22;34086;51.076;13.722;2022-12-24T00:41:07;9.20;99.90
48264;DHT22;34086;51.076;13.722;2022-12-24T00:42:23;9.20;99.90
48264;DHT22;34086;51.076;13.722;2022-12-24T00:43:24;9.20;99.90
48264;DHT22;34086;51.076;13.722;2022-12-24T00:44:24;9.20;99.90
48264;DHT22;34086;51.076;13.722;2022-12-24T00:45:25;9.20;99.90
48264;DHT22;34086;51.076;13.722;2022-12-24T00:46:29;9.10;99.90
48264;DHT22;34086;51.076;13.722;2022-12-24T00:47:30;9.10;99.90
48264;DHT22;34086;51.076;13.722;2022-12-24T00:48:31;9.10;99.90
48264;DHT22;34086;51.076;13.722;2022-12-24T00:49:31;9.10;99.90
48264;DHT22;34086;51.076;13.722;2022-12-24T00:50:32;9.00;99.90
48264;DHT22;34086;51.076;13.722;2022-12-24T00:51:34;9.00;99.90
48264;DHT22;34086;51.076;13.722;2022-12-24T00:52:35;9.00;99.90
48264;DHT22;34086;51.076;13.722;2022-12-24T00:53:35;9.00;99.90
48264;DHT22;34086;51.076;13.722;2022-12-24T00:54:36;9.00;99.90
48264;DHT22;34086;51.076;13.722;2022-12-24T00:55:36;9.00;99.90
48264;DHT22;34086;51.076;13.722;2022-12-24T00:56:37;9.00;99.90
48264;DHT22;34086;51.076;13.722;2022-12-24T00:57:37;9.00;99.90
48264;DHT22;34086;51.076;13.722;2022-12-24T00:58:38;9.00;99.90
48264;DHT22;34086;51.076;13.722;2022-12-24T00:59:39;9.00;99.90
48264;DHT22;34086;51.076;13.722;2022-12-24T01:00:39;9.00;99.90
48264;DHT22;34086;51.076;13.722;2022-12-24T01:01:40;9.00;99.90
48264;DHT22;34086;51.076;13.722;2022-12-24T01:02:40;8.90;99.90
48264;DHT22;34086;51.076;13.722;2022-12-24T01:03:41;8.90;99.90
48264;DHT22;34086;51.076;13.722;2022-12-24T01:04:41;8.90;99.90
48264;DHT22;34086;51.076;13.722;2022-12-24T01:06:16;8.90;99.90
48264;DHT22;34086;51.076;13.722;2022-12-24T01:07:17;8.80;99.90
48264;DHT22;34086;51.076;13.722;2022-12-24T01:08:18;8.80;99.90
48264;DHT22;34086;51.076;13.722;2022-12-24T01:09:18;8.80;99.90
48264;DHT22;34086;51.076;13.722;2022-12-24T01:10:19;8.80;99.90
48264;DHT22;34086;51.076;13.722;2022-12-24T01:11:20;8.80;99.90
48264;DHT22;34086;51.076;13.722;2022-12-24T01:12:20;8.80;99.90
48264;DHT22;34086;51.076;13.722;2022-12-24T01:13:21;8.80;99.90
48264;DHT22;34086;51.076;13.722;2022-12-24T01:14:22;8.80;99.90
48264;DHT22;34086;51.076;13.722;2022-12-24T01:15:22;8.80;99.90
48264;DHT22;34086;51.076;13.722;2022-12-24T01:16:23;8.80;99.90
48264;DHT22;34086;51.076;13.722;2022-12-24T01:17:23;8.80;99.90
48264;DHT22;34086;51.076;13.722;2022-12-24T01:18:24;8.70;99.90
48264;DHT22;34086;51.076;13.722;2022-12-24T01:19:25;8.70;99.90
48264;DHT22;34086;51.076;13.722;2022-12-24T01:20:25;8.70;99.90
48264;DHT22;34086;51.076;13.722;2022-12-24T01:21:30;8.70;99.90
48264;DHT22;34086;51.076;13.722;2022-12-24T01:22:31;8.70;99.90
48264;DHT22;34086;51.076;13.722;2022-12-24T01:23:31;8.70;99.90
48264;DHT22;34086;51.076;13.722;2022-12-24T01:24:32;8.70;99.90
48264;DHT22;34086;51.076;13.722;2022-12-24T01:25:32;8.70;99.90
48264;DHT22;34086;51.076;13.722;2022-12-24T01:26:33;8.70;99.90
48264;DHT22;34086;51.076;13.722;2022-12-24T01:27:33;8.70;99.90
48264;DHT22;34086;51.076;13.722;2022-12-24T01:28:34;8.70;99.90
48264;DHT22;34086;51.076;13.722;2022-12-24T01:29:35;8.70;99.90
48264;DHT22;34086;51.076;13.722;2022-12-24T01:30:35;8.70;99.90
48264;DHT22;34086;51.076;13.722;2022-12-24T01:31:37;8.70;99.90
48264;DHT22;34086;51.076;13.722;2022-12-24T01:32:38;8.70;99.90
48264;DHT22;34086;51.076;13.722;2022-12-24T01:33:39;8.70;99.90
48264;DHT22;34086;51.076;13.722;2022-12-24T01:34:40;8.80;99.90
48264;DHT22;34086;51.076;13.722;2022-12-24T01:35:41;8.80;99.90
48264;DHT22;34086;51.076;13.722;2022-12-24T01:36:42;8.80;99.90
48264;DHT22;34086;51.076;13.722;2022-12-24T01:37:43;8.80;99.90
48264;DHT22;34086;51.076;13.722;2022-12-24T01:38:43;8.80;99.90
48264;DHT22;34086;51.076;13.722;2022-12-24T01:39:44;8.70;99.90
48264;DHT22;34086;51.076;13.722;2022-12-24T01:40:44;8.70;99.90
48264;DHT22;34086;51.076;13.722;2022-12-24T01:42:18;8.70;99.90
48264;DHT22;34086;51.076;13.722;2022-12-24T01:43:37;8.80;99.90
48264;DHT22;34086;51.076;13.722;2022-12-24T01:44:42;8.70;99.90
48264;DHT22;34086;51.076;13.722;2022-12-24T01:45:46;8.80;99.90
48264;DHT22;34086;51.076;13.722;2022-12-24T01:46:49;8.80;99.90
48264;DHT22;34086;51.076;13.722;2022-12-24T01:47:51;8.70;99.90
48264;DHT22;34086;51.076;13.722;2022-12-24T01:48:57;8.70;99.90
48264;DHT22;34086;51.076;13.722;2022-12-24T01:50:03;8.80;99.90
48264;DHT22;34086;51.076;13.722;2022-12-24T01:51:23;8.70;99.90
48264;DHT22;34086;51.076;13.722;2022-12-24T01:52:29;8.70;99.90
48264;DHT22;34086;51.076;13.722;2022-12-24T01:53:32;8.70;99.90
48264;DHT22;34086;51.076;13.722;2022-12-24T01:54:52;8.80;99.90
48264;DHT22;34086;51.076;13.722;2022-12-24T01:55:54;8.70;99.90
48264;DHT22;34086;51.076;13.722;2022-12-24T01:56:59;8.80;99.90
48264;DHT22;34086;51.076;13.722;2022-12-24T01:58:02;8.80;99.90
48264;DHT22;34086;51.076;13.722;2022-12-24T01:59:07;8.80;99.90
48264;DHT22;34086;51.076;13.722;2022-12-24T02:00:11;8.70;99.90
48264;DHT22;34086;51.076;13.722;2022-12-24T02:01:12;8.70;99.90
48264;DHT22;34086;51.076;13.722;2022-12-24T02:02:13;8.70;99.90
48264;DHT22;34086;51.076;13.722;2022-12-24T02:03:14;8.80;99.90
48264;DHT22;34086;51.076;13.722;2022-12-24T02:04:30;8.80;99.90
48264;DHT22;34086;51.076;13.722;2022-12-24T02:05:45;8.80;99.90
48264;DHT22;34086;51.076;13.722;2022-12-24T02:06:45;8.80;99.90
48264;DHT22;34086;51.076;13.722;2022-12-24T02:07:46;8.80;99.90
48264;DHT22;34086;51.076;13.722;2022-12-24T02:08:48;8.80;99.90
48264;DHT22;34086;51.076;13.722;2022-12-24T02:09:52;8.80;99.90
48264;DHT22;34086;51.076;13.722;2022-12-24T02:10:55;8.80;99.90
48264;DHT22;34086;51.076;13.722;2022-12-24T02:11:56;8.80;99.90
48264;DHT22;34086;51.076;13.722;2022-12-24T02:12:58;8.80;99.90
48264;DHT22;34086;51.076;13.722;2022-12-24T02:14:00;8.80;99.90
48264;DHT22;34086;51.076;13.722;2022-12-24T02:15:01;8.80;99.90
48264;DHT22;34086;51.076;13.722;2022-12-24T02:16:28;8.80;99.90
48264;DHT22;34086;51.076;13.722;2022-12-24T02:17:32;8.80;99.90
48264;DHT22;34086;51.076;13.722;2022-12-24T02:20:30;8.80;99.90
48264;DHT22;34086;51.076;13.722;2022-12-24T02:21:51;8.80;99.90
48264;DHT22;34086;51.076;13.722;2022-12-24T02:31:49;8.80;99.90
48264;DHT22;34086;51.076;13.722;2022-12-24T02:33:17;8.80;99.90
48264;DHT22;34086;51.076;13.722;2022-12-24T02:34:29;8.80;99.90
48264;DHT22;34086;51.076;13.722;2022-12-24T02:35:37;8.80;99.90
48264;DHT22;34086;51.076;13.722;2022-12-24T02:36:47;8.80;99.90
48264;DHT22;34086;51.076;13.722;2022-12-24T02:37:55;8.80;99.90
48264;DHT22;34086;51.076;13.722;2022-12-24T02:39:04;8.90;99.90
48264;DHT22;34086;51.076;13.722;2022-12-24T02:40:09;8.90;99.90
48264;DHT22;34086;51.076;13.722;2022-12-24T02:41:20;8.90;99.90
48264;DHT22;34086;51.076;13.722;2022-12-24T02:42:26;8.80;99.90
48264;DHT22;34086;51.076;13.722;2022-12-24T02:43:34;8.90;99.90
48264;DHT22;34086;51.076;13.722;2022-12-24T02:44:56;8.90;99.90
48264;DHT22;34086;51.076;13.722;2022-12-24T02:46:01;9.00;99.90
48264;DHT22;34086;51.076;13.722;2022-12-24T02:47:05;8.90;99.90
48264;DHT22;34086;51.076;13.722;2022-12-24T02:48:07;8.90;99.90
48264;DHT22;34086;51.076;13.722;2022-12-24T02:49:08;8.90;99.90
48264;DHT22;34086;51.076;13.722;2022-12-24T02:50:11;8.90;99.90
48264;DHT22;34086;51.076;13.722;2022-12-24T02:51:12;9.00;99.90
48264;DHT22;34086;51.076;13.722;2022-12-24T02:52:27;9.00;99.90
48264;DHT22;34086;51.076;13.722;2022-12-24T02:53:29;9.00;99.90
48264;DHT22;34086;51.076;13.722;2022-12-24T02:54:30;9.00;99.90
48264;DHT22;34086;51.076;13.722;2022-12-24T02:55:43;9.00;99.90
48264;DHT22;34086;51.076;13.722;2022-12-24T02:58:14;9.00;99.90
48264;DHT22;34086;51.076;13.722;2022-12-24T03:00:22;9.00;99.90
48264;DHT22;34086;51.076;13.722;2022-12-24T03:04:21;9.00;99.90
48264;DHT22;34086;51.076;13.722;2022-12-24T03:07:16;8.90;99.90
48264;DHT22;34086;51.076;13.722;2022-12-24T03:08:29;8.90;99.90
48264;DHT22;34086;51.076;13.722;2022-12-24T03:11:12;8.90;99.90
48264;DHT22;34086;51.076;13.722;2022-12-24T03:12:18;8.90;99.90
48264;DHT22;34086;51.076;13.722;2022-12-24T03:13:21;9.00;99.90
48264;DHT22;34086;51.076;13.722;2022-12-24T03:14:24;9.00;99.90
48264;DHT22;34086;51.076;13.722;2022-12-24T03:15:26;9.00;99.90
48264;DHT22;34086;51.076;13.722;2022-12-24T03:16:27;9.00;99.90
48264;DHT22;34086;51.076;13.722;2022-12-24T03:17:29;9.00;99.90
48264;DHT22;34086;51.076;13.722;2022-12-24T03:18:30;9.00;99.90
48264;DHT22;34086;51.076;13.722;2022-12-24T03:19:32;9.00;99.90
48264;DHT22;34086;51.076;13.722;2022-12-24T03:20:39;9.00;99.90
48264;DHT22;34086;51.076;13.722;2022-12-24T03:21:41;9.10;99.90
48264;DHT22;34086;51.076;13.722;2022-12-24T03:22:42;9.10;99.90
48264;DHT22;34086;51.076;13.722;2022-12-24T03:23:42;9.10;99.90
48264;DHT22;34086;51.076;13.722;2022-12-24T03:24:43;9.10;99.90
48264;DHT22;34086;51.076;13.722;2022-12-24T03:25:44;9.10;99.90
48264;DHT22;34086;51.076;13.722;2022-12-24T03:26:45;9.10;99.90
48264;DHT22;34086;51.076;13.722;2022-12-24T03:27:46;9.10;99.90
48264;DHT22;34086;51.076;13.722;2022-12-24T03:28:47;9.20;99.90
48264;DHT22;34086;51.076;13.722;2022-12-24T03:29:48;9.20;99.90
48264;DHT22;34086;51.076;13.722;2022-12-24T03:30:49;9.20;99.90
48264;DHT22;34086;51.076;13.722;2022-12-24T03:31:51;9.30;99.90
48264;DHT22;34086;51.076;13.722;2022-12-24T03:32:52;9.30;99.90
48264;DHT22;34086;51.076;13.722;2022-12-24T03:33:52;9.30;99.90
48264;DHT22;34086;51.076;13.722;2022-12-24T03:34:54;9.30;99.90
48264;DHT22;34086;51.076;13.722;2022-12-24T03:35:54;9.30;99.90
48264;DHT22;34086;51.076;13.722;2022-12-24T03:36:55;9.40;99.90
48264;DHT22;34086;51.076;13.722;2022-12-24T03:37:55;9.40;99.90
48264;DHT22;34086;51.076;13.722;2022-12-24T03:38:56;9.40;99.90
48264;DHT22;34086;51.076;13.722;2022-12-24T03:39:56;9.40;99.90
48264;DHT22;34086;51.076;13.722;2022-12-24T03:40:58;9.50;99.90
48264;DHT22;34086;51.076;13.722;2022-12-24T03:41:58;9.50;99.90
48264;DHT22;34086;51.076;13.722;2022-12-24T03:42:59;9.50;99.90
48264;DHT22;34086;51.076;13.722;2022-12-24T03:43:59;9.50;99.90
48264;DHT22;34086;51.076;13.722;2022-12-24T03:45:00;9.60;99.90
48264;DHT22;34086;51.076;13.722;2022-12-24T03:46:05;9.60;99.90
48264;DHT22;34086;51.076;13.722;2022-12-24T03:47:06;9.60;99.90
48264;DHT22;34086;51.076;13.722;2022-12-24T03:48:06;9.60;99.90
48264;DHT22;34086;51.076;13.722;2022-12-24T03:49:07;9.60;99.90
48264;DHT22;34086;51.076;13.722;2022-12-24T03:50:08;9.60;99.90
48264;DHT22;34086;51.076;13.722;2022-12-24T03:51:25;9.70;99.90
48264;DHT22;34086;51.076;13.722;2022-12-24T03:52:26;9.70;99.90
48264;DHT22;34086;51.076;13.722;2022-12-24T03:53:26;9.70;99.90
48264;DHT22;34086;51.076;13.722;2022-12-24T03:54:27;9.70;99.90
48264;DHT22;34086;51.076;13.722;2022-12-24T03:55:27;9.70;99.90
48264;DHT22;34086;51.076;13.722;2022-12-24T03:56:28;9.70;99.90
48264;DHT22;34086;51.076;13.722;2022-12-24T03:57:28;9.80;99.90
48264;DHT22;34086;51.076;13.722;2022-12-24T03:58:29;9.80;99.90
48264;DHT22;34086;51.076;13.722;2022-12-24T03:59:29;9.90;99.90
48264;DHT22;34086;51.076;13.722;2022-12-24T04:00:30;9.90;99.90
48264;DHT22;34086;51.076;13.722;2022-12-24T04:01:31;9.90;99.90
48264;DHT22;34086;51.076;13.722;2022-12-24T04:02:31;9.90;99.90
48264;DHT22;34086;51.076;13.722;2022-12-24T04:03:32;9.90;99.90
48264;DHT22;34086;51.076;13.722;2022-12-24T04:04:32;10.00;99.90
48264;DHT22;34086;51.076;13.722;2022-12-24T04:05:36;10.00;99.90
48264;DHT22;34086;51.076;13.722;2022-12-24T04:06:36;10.00;99.90
48264;DHT22;34086;51.076;13.722;2022-12-24T04:07:37;10.00;99.90
48264;DHT22;34086;51.076;13.722;2022-12-24T04:08:38;10.00;99.90
48264;DHT22;34086;51.076;13.722;2022-12-24T04:09:39;10.00;99.90
48264;DHT22;34086;51.076;13.722;2022-12-24T04:10:39;10.00;99.90
48264;DHT22;34086;51.076;13.722;2022-12-24T04:11:40;10.00;99.90
48264;DHT22;34086;51.076;13.722;2022-12-24T04:12:40;10.00;99.90
48264;DHT22;34086;51.076;13.722;2022-12-24T04:13:41;10.00;99.90
48264;DHT22;34086;51.076;13.722;2022-12-24T04:14:42;10.10;99.90
48264;DHT22;34086;51.076;13.722;2022-12-24T04:15:42;10.10;99.90
48264;DHT22;34086;51.076;13.722;2022-12-24T04:16:43;10.10;99.90
48264;DHT22;34086;51.076;13.722;2022-12-24T04:17:43;10.10;99.90
48264;DHT22;34086;51.076;13.722;2022-12-24T04:18:44;10.10;99.90
48264;DHT22;34086;51.076;13.722;2022-12-24T04:19:44;10.10;99.90
48264;DHT22;34086;51.076;13.722;2022-12-24T04:20:45;10.10;99.90
48264;DHT22;34086;51.076;13.722;2022-12-24T04:21:46;10.10;99.90
48264;DHT22;34086;51.076;13.722;2022-12-24T04:22:46;10.20;99.90
48264;DHT22;34086;51.076;13.722;2022-12-24T04:23:47;10.20;99.90
48264;DHT22;34086;51.076;13.722;2022-12-24T04:24:48;10.20;99.90
48264;DHT22;34086;51.076;13.722;2022-12-24T04:25:48;10.20;99.90
48264;DHT22;34086;51.076;13.722;2022-12-24T04:26:49;10.20;99.90
48264;DHT22;34086;51.076;13.722;2022-12-24T04:27:49;10.30;99.90
48264;DHT22;34086;51.076;13.722;2022-12-24T04:28:50;10.30;99.90
48264;DHT22;34086;51.076;13.722;2022-12-24T04:29:50;10.30;99.90
48264;DHT22;34086;51.076;13.722;2022-12-24T04:30:51;10.30;99.90
48264;DHT22;34086;51.076;13.722;2022-12-24T04:31:51;10.30;99.90
48264;DHT22;34086;51.076;13.722;2022-12-24T04:32:52;10.30;99.90
48264;DHT22;34086;51.076;13.722;2022-12-24T04:33:52;10.40;99.90
48264;DHT22;34086;51.076;13.722;2022-12-24T04:34:53;10.40;99.90
48264;DHT22;34086;51.076;13.722;2022-12-24T04:35:56;10.40;99.90
48264;DHT22;34086;51.076;13.722;2022-12-24T04:36:57;10.40;99.90
48264;DHT22;34086;51.076;13.722;2022-12-24T04:37:58;10.40;99.90
48264;DHT22;34086;51.076;13.722;2022-12-24T04:38:58;10.40;99.90
48264;DHT22;34086;51.076;13.722;2022-12-24T04:39:59;10.40;99.90
48264;DHT22;34086;51.076;13.722;2022-12-24T04:41:04;10.40;99.90
48264;DHT22;34086;51.076;13.722;2022-12-24T04:42:05;10.40;99.90
48264;DHT22;34086;51.076;13.722;2022-12-24T04:43:05;10.40;99.90
48264;DHT22;34086;51.076;13.722;2022-12-24T04:44:07;10.40;99.90
48264;DHT22;34086;51.076;13.722;2022-12-24T04:45:08;10.40;99.90
48264;DHT22;34086;51.076;13.722;2022-12-24T04:46:17;10.40;99.90
48264;DHT22;34086;51.076;13.722;2022-12-24T04:47:17;10.40;99.90
48264;DHT22;34086;51.076;13.722;2022-12-24T04:48:18;10.30;99.90
48264;DHT22;34086;51.076;13.722;2022-12-24T04:49:19;10.30;99.90
48264;DHT22;34086;51.076;13.722;2022-12-24T04:50:19;10.40;99.90
48264;DHT22;34086;51.076;13.722;2022-12-24T04:51:20;10.40;99.90
48264;DHT22;34086;51.076;13.722;2022-12-24T04:52:21;10.50;99.90
48264;DHT22;34086;51.076;13.722;2022-12-24T04:53:21;10.50;99.90
48264;DHT22;34086;51.076;13.722;2022-12-24T04:54:22;10.50;99.90
48264;DHT22;34086;51.076;13.722;2022-12-24T04:55:22;10.50;99.90
48264;DHT22;34086;51.076;13.722;2022-12-24T04:56:26;10.50;99.90
48264;DHT22;34086;51.076;13.722;2022-12-24T04:57:26;10.50;99.90
48264;DHT22;34086;51.076;13.722;2022-12-24T04:58:27;10.40;99.90
48264;DHT22;34086;51.076;13.722;2022-12-24T04:59:28;10.40;99.90
48264;DHT22;34086;51.076;13.722;2022-12-24T05:00:29;10.40;99.90
48264;DHT22;34086;51.076;13.722;2022-12-24T05:01:31;10.40;99.90
48264;DHT22;34086;51.076;13.722;2022-12-24T05:02:31;10.40;99.90
48264;DHT22;34086;51.076;13.722;2022-12-24T05:03:32;10.40;99.90
48264;DHT22;34086;51.076;13.722;2022-12-24T05:04:33;10.40;99.90
48264;DHT22;34086;51.076;13.722;2022-12-24T05:05:34;10.40;99.90
48264;DHT22;34086;51.076;13.722;2022-12-24T05:06:34;10.40;99.90
48264;DHT22;34086;51.076;13.722;2022-12-24T05:07:35;10.30;99.90
48264;DHT22;34086;51.076;13.722;2022-12-24T05:08:35;10.30;99.90
48264;DHT22;34086;51.076;13.722;2022-12-24T05:09:36;10.30;99.90
48264;DHT22;34086;51.076;13.722;2022-12-24T05:10:36;10.30;99.90
48264;DHT22;34086;51.076;13.722;2022-12-24T05:11:37;10.30;99.90
48264;DHT22;34086;51.076;13.722;2022-12-24T05:12:37;10.20;99.90
48264;DHT22;34086;51.076;13.722;2022-12-24T05:13:38;10.20;99.90
48264;DHT22;34086;51.076;13.722;2022-12-24T05:14:39;10.20;99.90
48264;DHT22;34086;51.076;13.722;2022-12-24T05:15:40;10.20;99.90
48264;DHT22;34086;51.076;13.722;2022-12-24T05:16:40;10.20;99.90
48264;DHT22;34086;51.076;13.722;2022-12-24T05:17:41;10.20;99.90
48264;DHT22;34086;51.076;13.722;2022-12-24T05:18:41;10.20;99.90
48264;DHT22;34086;51.076;13.722;2022-12-24T05:19:42;10.20;99.90
48264;DHT22;34086;51.076;13.722;2022-12-24T05:20:43;10.20;99.90
48264;DHT22;34086;51.076;13.722;2022-12-24T05:21:43;10.10;99.90
48264;DHT22;34086;51.076;13.722;2022-12-24T05:23:04;10.10;99.90
48264;DHT22;34086;51.076;13.722;2022-12-24T05:24:23;10.10;99.90
48264;DHT22;34086;51.076;13.722;2022-12-24T05:25:42;10.10;99.90
48264;DHT22;34086;51.076;13.722;2022-12-24T05:27:02;10.00;99.90
48264;DHT22;34086;51.076;13.722;2022-12-24T05:28:02;10.00;99.90
48264;DHT22;34086;51.076;13.722;2022-12-24T05:29:04;10.00;99.90
48264;DHT22;34086;51.076;13.722;2022-12-24T05:30:06;10.00;99.90
48264;DHT22;34086;51.076;13.722;2022-12-24T05:31:06;9.90;99.90
48264;DHT22;34086;51.076;13.722;2022-12-24T05:32:07;9.90;99.90
48264;DHT22;34086;51.076;13.722;2022-12-24T05:33:07;9.90;99.90
48264;DHT22;34086;51.076;13.722;2022-12-24T05:34:08;9.90;99.90
48264;DHT22;34086;51.076;13.722;2022-12-24T05:35:09;9.90;99.90
48264;DHT22;34086;51.076;13.722;2022-12-24T05:36:10;9.90;99.90
48264;DHT22;34086;51.076;13.722;2022-12-24T05:37:11;9.90;99.90
48264;DHT22;34086;51.076;13.722;2022-12-24T05:38:11;9.80;99.90
48264;DHT22;34086;51.076;13.722;2022-12-24T05:39:14;9.90;99.90
48264;DHT22;34086;51.076;13.722;2022-12-24T05:40:15;9.80;99.90
48264;DHT22;34086;51.076;13.722;2022-12-24T05:41:16;9.80;99.90
48264;DHT22;34086;51.076;13.722;2022-12-24T05:42:17;9.80;99.90
48264;DHT22;34086;51.076;13.722;2022-12-24T05:43:17;9.80;99.90
48264;DHT22;34086;51.076;13.722;2022-12-24T05:44:18;9.80;99.90
48264;DHT22;34086;51.076;13.722;2022-12-24T05:45:18;9.80;99.90
48264;DHT22;34086;51.076;13.722;2022-12-24T05:46:20;9.80;99.90
48264;DHT22;34086;51.076;13.722;2022-12-24T05:47:21;9.80;99.90
48264;DHT22;34086;51.076;13.722;2022-12-24T05:48:22;9.80;99.90
48264;DHT22;34086;51.076;13.722;2022-12-24T05:49:22;9.80;99.90
48264;DHT22;34086;51.076;13.722;2022-12-24T05:50:23;9.80;99.90
48264;DHT22;34086;51.076;13.722;2022-12-24T05:51:38;9.90;99.90
48264;DHT22;34086;51.076;13.722;2022-12-24T05:52:39;9.90;99.90
48264;DHT22;34086;51.076;13.722;2022-12-24T05:53:40;9.90;99.90
48264;DHT22;34086;51.076;13.722;2022-12-24T05:54:41;9.90;99.90
48264;DHT22;34086;51.076;13.722;2022-12-24T05:55:41;9.90;99.90
48264;DHT22;34086;51.076;13.722;2022-12-24T05:56:42;9.90;99.90
48264;DHT22;34086;51.076;13.722;2022-12-24T05:57:42;9.90;99.90
48264;DHT22;34086;51.076;13.722;2022-12-24T05:58:43;9.90;99.90
48264;DHT22;34086;51.076;13.722;2022-12-24T05:59:44;9.90;99.90
48264;DHT22;34086;51.076;13.722;2022-12-24T06:00:44;9.90;99.90
48264;DHT22;34086;51.076;13.722;2022-12-24T06:01:45;9.90;99.90
48264;DHT22;34086;51.076;13.722;2022-12-24T06:02:47;9.90;99.90
48264;DHT22;34086;51.076;13.722;2022-12-24T06:03:48;9.90;99.90
48264;DHT22;34086;51.076;13.722;2022-12-24T06:04:49;10.00;99.90
48264;DHT22;34086;51.076;13.722;2022-12-24T06:06:04;10.00;99.90
48264;DHT22;34086;51.076;13.722;2022-12-24T06:07:05;10.00;99.90
48264;DHT22;34086;51.076;13.722;2022-12-24T06:08:06;10.00;99.90
48264;DHT22;34086;51.076;13.722;2022-12-24T06:09:06;10.00;99.90
48264;DHT22;34086;51.076;13.722;2022-12-24T06:10:07;10.00;99.90
48264;DHT22;34086;51.076;13.722;2022-12-24T06:11:11;9.90;99.90
48264;DHT22;34086;51.076;13.722;2022-12-24T06:12:11;9.90;99.90
48264;DHT22;34086;51.076;13.722;2022-12-24T06:13:12;9.90;99.90
48264;DHT22;34086;51.076;13.722;2022-12-24T06:14:12;9.90;99.90
48264;DHT22;34086;51.076;13.722;2022-12-24T06:15:13;9.90;99.90
48264;DHT22;34086;51.076;13.722;2022-12-24T06:16:16;9.90;99.90
48264;DHT22;34086;51.076;13.722;2022-12-24T06:17:17;9.90;99.90
48264;DHT22;34086;51.076;13.722;2022-12-24T06:18:18;9.90;99.90
48264;DHT22;34086;51.076;13.722;2022-12-24T06:19:18;9.90;99.90
48264;DHT22;34086;51.076;13.722;2022-12-24T06:20:19;9.90;99.90
48264;DHT22;34086;51.076;13.722;2022-12-24T06:21:20;9.90;99.90
48264;DHT22;34086;51.076;13.722;2022-12-24T06:22:20;9.90;99.90
48264;DHT22;34086;51.076;13.722;2022-12-24T06:23:22;9.90;99.90
48264;DHT22;34086;51.076;13.722;2022-12-24T06:24:23;9.90;99.90
48264;DHT22;34086;51.076;13.722;2022-12-24T06:25:23;9.90;99.90
48264;DHT22;34086;51.076;13.722;2022-12-24T06:26:24;9.90;99.90
48264;DHT22;34086;51.076;13.722;2022-12-24T06:27:25;9.90;99.90
48264;DHT22;34086;51.076;13.722;2022-12-24T06:28:27;9.90;99.90
48264;DHT22;34086;51.076;13.722;2022-12-24T06:29:27;9.90;99.90
48264;DHT22;34086;51.076;13.722;2022-12-24T06:30:28;9.90;99.90
48264;DHT22;34086;51.076;13.722;2022-12-24T06:31:28;9.90;99.90
48264;DHT22;34086;51.076;13.722;2022-12-24T06:32:29;9.90;99.90
48264;DHT22;34086;51.076;13.722;2022-12-24T06:33:30;9.90;99.90
48264;DHT22;34086;51.076;13.722;2022-12-24T06:34:31;9.90;99.90
48264;DHT22;34086;51.076;13.722;2022-12-24T06:35:32;9.90;99.90
48264;DHT22;34086;51.076;13.722;2022-12-24T06:36:32;9.80;99.90
48264;DHT22;34086;51.076;13.722;2022-12-24T06:37:33;9.80;99.90
48264;DHT22;34086;51.076;13.722;2022-12-24T06:38:34;9.80;99.90
48264;DHT22;34086;51.076;13.722;2022-12-24T06:39:34;9.80;99.90
48264;DHT22;34086;51.076;13.722;2022-12-24T06:40:37;9.80;99.90
48264;DHT22;34086;51.076;13.722;2022-12-24T06:41:37;9.80;99.90
48264;DHT22;34086;51.076;13.722;2022-12-24T06:42:38;9.80;99.90
48264;DHT22;34086;51.076;13.722;2022-12-24T06:43:42;9.80;99.90
48264;DHT22;34086;51.076;13.722;2022-12-24T06:44:43;9.80;99.90
48264;DHT22;34086;51.076;13.722;2022-12-24T06:45:45;9.80;99.90
48264;DHT22;34086;51.076;13.722;2022-12-24T06:46:46;9.80;99.90
48264;DHT22;34086;51.076;13.722;2022-12-24T06:47:46;9.80;99.90
48264;DHT22;34086;51.076;13.722;2022-12-24T06:48:47;9.80;99.90
48264;DHT22;34086;51.076;13.722;2022-12-24T06:49:48;9.80;99.90
48264;DHT22;34086;51.076;13.722;2022-12-24T06:50:48;9.80;99.90
48264;DHT22;34086;51.076;13.722;2022-12-24T06:51:49;9.90;99.90
48264;DHT22;34086;51.076;13.722;2022-12-24T06:52:49;9.90;99.90